createdAt,value
2022-08-29T00:03:10.165Z,1.10
2022-08-29T00:08:13.491Z,1.30
2022-08-29T00:13:16.881Z,1.42
2022-08-29T00:18:21.388Z,1.13
2022-08-29T00:23:24.350Z,1.00
2022-08-29T00:28:27.383Z,1.45
2022-08-29T00:33:31.780Z,1.42
2022-08-29T00:38:34.612Z,1.17
2022-08-29T00:43:38.334Z,1.30
2022-08-29T00:48:42.663Z,1.42
2022-08-29T00:53:48.012Z,1.50
2022-08-29T00:58:53.510Z,1.35
2022-08-29T01:03:57.660Z,1.50
2022-08-29T01:09:00.415Z,1.20
2022-08-29T01:14:04.240Z,1.60
2022-08-29T01:19:23.505Z,1.55
2022-08-29T01:24:37.328Z,1.35
2022-08-29T01:29:40.086Z,1.42
2022-08-29T01:34:43.469Z,1.58
2022-08-29T01:39:47.737Z,1.15
2022-08-29T01:44:52.332Z,1.35
2022-08-29T01:49:55.309Z,1.30
2022-08-29T01:54:59.804Z,1.67
2022-08-29T02:00:04.112Z,1.92
2022-08-29T02:05:08.433Z,1.10
2022-08-29T02:10:12.967Z,1.33
2022-08-29T02:15:16.588Z,1.25
2022-08-29T02:20:19.500Z,1.48
2022-08-29T02:25:41.033Z,1.77
2022-08-29T02:30:45.769Z,1.30
2022-08-29T02:35:53.288Z,1.70
2022-08-29T02:40:57.391Z,1.35
2022-08-29T02:46:00.160Z,1.50
2022-08-29T02:51:02.968Z,1.48
2022-08-29T02:56:07.930Z,2.03
2022-08-29T03:01:15.483Z,2.05
2022-08-29T03:06:18.814Z,2.00
2022-08-29T03:11:23.638Z,1.80
2022-08-29T03:16:26.714Z,1.70
2022-08-29T03:21:29.550Z,1.83
2022-08-29T03:26:33.859Z,1.90
2022-08-29T03:31:36.624Z,2.30
2022-08-29T03:36:39.352Z,1.75
2022-08-29T03:41:43.803Z,1.75
2022-08-29T03:46:47.354Z,1.88
2022-08-29T03:51:50.157Z,1.83
2022-08-29T03:56:55.556Z,2.00
2022-08-29T04:01:58.651Z,1.90
2022-08-29T04:07:01.904Z,1.70
2022-08-29T04:12:06.472Z,1.80
2022-08-29T04:17:12.253Z,2.45
2022-08-29T04:22:15.282Z,2.33
2022-08-29T04:27:19.376Z,2.10
2022-08-29T04:32:22.564Z,2.05
2022-08-29T04:37:25.330Z,1.77
2022-08-29T04:42:30.112Z,2.10
2022-08-29T04:47:32.890Z,2.35
2022-08-29T04:52:36.522Z,1.90
2022-08-29T04:57:41.402Z,2.13
2022-08-29T05:02:45.194Z,2.08
2022-08-29T05:07:48.150Z,2.30
2022-08-29T05:12:52.405Z,2.47
2022-08-29T05:17:55.277Z,2.17
2022-08-29T05:22:58.028Z,2.53
2022-08-29T05:28:02.282Z,2.30
2022-08-29T05:33:05.007Z,2.40
2022-08-29T05:38:09.442Z,2.35
2022-08-29T05:43:14.135Z,2.35
2022-08-29T05:48:18.351Z,4.60
2022-08-29T05:53:21.291Z,2.38
2022-08-29T05:58:25.410Z,2.45
2022-08-29T06:03:28.429Z,3.00
2022-08-29T06:08:31.346Z,2.97
2022-08-29T06:13:35.513Z,2.90
2022-08-29T06:18:38.235Z,3.38
2022-08-29T06:23:42.443Z,3.70
2022-08-29T06:28:46.954Z,3.53
2022-08-29T06:33:52.304Z,3.55
2022-08-29T06:38:56.833Z,3.30
2022-08-29T06:44:01.573Z,3.33
2022-08-29T06:49:06.040Z,3.40
2022-08-29T06:54:10.179Z,2.60
2022-08-29T06:59:14.364Z,2.95
2022-08-29T07:04:20.771Z,2.22
2022-08-29T07:09:23.870Z,2.72
2022-08-29T07:14:28.009Z,2.50
2022-08-29T07:19:30.700Z,2.47
2022-08-29T07:24:34.154Z,2.30
2022-08-29T07:29:38.362Z,2.10
2022-08-29T07:34:41.170Z,2.17
2022-08-29T07:39:44.043Z,2.28
2022-08-29T07:44:49.819Z,2.30
2022-08-29T07:49:52.517Z,1.80
2022-08-29T07:54:55.444Z,1.90
2022-08-29T07:59:59.495Z,2.33
2022-08-29T08:05:02.371Z,1.75
2022-08-29T08:10:10.219Z,1.90
2022-08-29T08:15:15.224Z,1.70
2022-08-29T08:20:18.118Z,2.00
2022-08-29T08:25:24.376Z,1.77
2022-08-29T08:30:30.850Z,1.90
2022-08-29T08:35:41.989Z,2.00
2022-08-29T08:40:50.586Z,1.90
2022-08-29T08:45:55.195Z,1.65
2022-08-29T08:51:00.414Z,1.50
2022-08-29T08:56:07.175Z,1.65
2022-08-29T09:01:18.615Z,1.73
2022-08-29T09:06:31.567Z,1.40
2022-08-29T09:11:41.898Z,1.83
2022-08-29T09:16:49.668Z,1.55
2022-08-29T09:21:55.255Z,1.65
2022-08-29T09:26:58.034Z,1.50
2022-08-29T09:32:11.845Z,1.33
2022-08-29T09:37:24.795Z,1.70
2022-08-29T09:42:32.992Z,1.60
2022-08-29T09:47:37.242Z,1.58
2022-08-29T09:52:42.301Z,1.80
2022-08-29T09:57:51.279Z,1.48
2022-08-29T10:02:57.533Z,1.80
2022-08-29T10:08:00.808Z,1.88
2022-08-29T10:13:08.527Z,1.50
2022-08-29T10:18:25.046Z,1.52
2022-08-29T10:23:35.902Z,1.60
2022-08-29T10:28:43.093Z,1.77
2022-08-29T10:34:01.901Z,1.40
2022-08-29T10:39:14.883Z,1.38
2022-08-29T10:44:27.025Z,1.33
2022-08-29T10:49:45.209Z,1.30
2022-08-29T10:54:54.382Z,1.92
2022-08-29T11:00:02.785Z,1.50
2022-08-29T11:05:10.869Z,1.35
2022-08-29T11:10:17.833Z,1.73
2022-08-29T11:15:29.440Z,1.50
2022-08-29T11:20:37.367Z,1.67
2022-08-29T11:25:41.882Z,1.27
2022-08-29T11:30:48.216Z,1.42
2022-08-29T11:36:04.412Z,1.90
2022-08-29T11:41:31.253Z,1.40
2022-08-29T11:46:43.790Z,1.50
2022-08-29T11:51:51.561Z,1.30
2022-08-29T11:57:34.225Z,1.63
2022-08-29T12:02:43.611Z,1.30
2022-08-29T12:07:54.873Z,1.40
2022-08-29T12:12:59.058Z,1.58
2022-08-29T12:18:04.418Z,1.58
2022-08-29T12:23:19.416Z,1.40
2022-08-29T12:28:37.593Z,1.30
2022-08-29T12:33:56.037Z,1.45
2022-08-29T12:39:19.465Z,1.35
2022-08-29T12:44:27.384Z,1.20
2022-08-29T12:49:37.200Z,1.05
2022-08-29T12:54:45.801Z,1.20
2022-08-29T12:59:50.499Z,1.35
2022-08-29T13:04:53.829Z,1.35
2022-08-29T13:09:59.822Z,0.93
2022-08-29T13:15:06.324Z,1.20
2022-08-29T13:20:45.877Z,1.52
2022-08-29T13:25:54.294Z,1.20
2022-08-29T13:31:22.547Z,1.20
2022-08-29T13:36:40.861Z,1.20
2022-08-29T13:41:46.600Z,1.10
2022-08-29T13:46:51.464Z,0.95
2022-08-29T13:51:54.771Z,0.93
2022-08-29T13:57:02.112Z,1.30
2022-08-29T14:02:10.057Z,1.20
2022-08-29T14:07:18.073Z,1.00
2022-08-29T14:12:33.647Z,0.98
2022-08-29T14:17:36.984Z,1.13
2022-08-29T14:22:40.081Z,1.13
2022-08-29T14:27:44.858Z,1.27
2022-08-29T14:32:47.892Z,1.10
2022-08-29T14:37:52.208Z,1.48
2022-08-29T14:42:56.374Z,0.95
2022-08-29T14:48:00.018Z,1.00
2022-08-29T14:53:02.920Z,0.95
2022-08-29T14:58:07.141Z,1.13
2022-08-29T15:03:09.955Z,1.13
2022-08-29T15:08:15.756Z,1.38
2022-08-29T15:13:20.045Z,1.33
2022-08-29T15:19:05.457Z,1.10
2022-08-29T15:23:48.932Z,1.10
2022-08-29T15:28:54.787Z,1.27
2022-08-29T15:33:57.758Z,1.50
2022-08-29T15:39:04.805Z,1.27
2022-08-29T15:44:08.879Z,1.40
2022-08-29T15:49:12.648Z,1.17
2022-08-29T15:54:15.503Z,1.23
2022-08-29T15:59:30.984Z,1.40
2022-08-29T16:04:47.319Z,1.33
2022-08-29T16:09:50.120Z,1.33
2022-08-29T16:15:04.451Z,1.10
2022-08-29T16:20:11.740Z,1.67
2022-08-29T16:25:15.382Z,1.67
2022-08-29T16:30:20.221Z,1.25
2022-08-29T16:35:23.329Z,1.13
2022-08-29T16:40:27.364Z,1.05
2022-08-29T16:45:31.877Z,1.35
2022-08-29T16:50:34.699Z,1.40
2022-08-29T16:55:37.520Z,0.98
2022-08-29T17:00:42.031Z,1.30
2022-08-29T17:05:44.835Z,1.15
2022-08-29T17:10:46.520Z,1.17
2022-08-29T17:15:49.523Z,1.30
2022-08-29T17:20:53.991Z,1.20
2022-08-29T17:25:57.460Z,1.30
2022-08-29T17:31:01.730Z,1.20
2022-08-29T17:36:05.674Z,1.33
2022-08-29T17:41:14.824Z,1.45
2022-08-29T17:46:21.986Z,1.23
2022-08-29T17:51:24.814Z,1.55
2022-08-29T17:56:30.402Z,1.08
2022-08-29T18:01:35.627Z,1.60
2022-08-29T18:06:38.810Z,1.30
2022-08-29T18:11:43.596Z,1.30
2022-08-29T18:16:47.821Z,1.40
2022-08-29T18:21:51.412Z,1.60
2022-08-29T18:26:54.255Z,1.15
2022-08-29T18:31:58.339Z,1.23
2022-08-29T18:37:01.106Z,1.70
2022-08-29T18:42:03.846Z,1.50
2022-08-29T18:47:08.108Z,1.58
2022-08-29T18:52:10.815Z,1.45
2022-08-29T18:57:13.516Z,1.70
2022-08-29T19:02:17.706Z,1.90
2022-08-29T19:07:24.356Z,2.20
2022-08-29T19:12:27.223Z,1.55
2022-08-29T19:17:31.424Z,1.70
2022-08-29T19:22:35.139Z,2.05
2022-08-29T19:27:43.940Z,2.17
2022-08-29T19:32:48.507Z,2.15
2022-08-29T19:37:51.694Z,1.80
2022-08-29T19:42:55.821Z,1.98
2022-08-29T19:48:01.384Z,2.15
2022-08-29T19:53:04.195Z,2.05
2022-08-29T19:58:07.808Z,2.00
2022-08-29T20:03:12.215Z,2.20
2022-08-29T20:08:14.953Z,2.47
2022-08-29T20:13:17.872Z,2.63
2022-08-29T20:18:22.746Z,2.53
2022-08-29T20:23:25.654Z,2.33
2022-08-29T20:28:30.376Z,2.95
2022-08-29T20:33:37.063Z,2.75
2022-08-29T20:38:42.387Z,2.55
2022-08-29T20:43:45.295Z,2.40
2022-08-29T20:48:49.455Z,2.50
2022-08-29T20:53:52.150Z,2.60
2022-08-29T20:58:54.872Z,2.22
2022-08-29T21:04:20.796Z,2.08
2022-08-29T21:09:24.203Z,2.40
2022-08-29T21:14:28.135Z,2.35
2022-08-29T21:19:33.165Z,2.00
2022-08-29T21:24:38.214Z,2.13
2022-08-29T21:29:42.466Z,2.30
2022-08-29T21:34:46.567Z,1.80
2022-08-29T21:39:49.891Z,2.03
2022-08-29T21:44:55.681Z,2.00
2022-08-29T21:50:00.003Z,2.67
2022-08-29T21:55:04.942Z,2.00
2022-08-29T22:00:09.160Z,2.00
2022-08-29T22:05:13.446Z,1.95
2022-08-29T22:10:18.582Z,2.35
2022-08-29T22:15:39.159Z,2.28
2022-08-29T22:20:43.970Z,2.13
2022-08-29T22:25:46.788Z,1.80
2022-08-29T22:30:49.965Z,2.38
2022-08-29T22:35:54.079Z,2.22
2022-08-29T22:40:57.344Z,1.90
2022-08-29T22:46:00.212Z,2.05
2022-08-29T22:51:04.990Z,1.75
2022-08-29T22:56:08.092Z,2.10
2022-08-29T23:01:11.242Z,1.98
2022-08-29T23:06:15.392Z,1.77
2022-08-29T23:11:18.378Z,1.90
2022-08-29T23:16:22.208Z,1.75
2022-08-29T23:21:26.514Z,2.22
2022-08-29T23:26:30.188Z,1.63
2022-08-29T23:31:33.004Z,2.00
2022-08-29T23:36:37.478Z,1.90
2022-08-29T23:41:40.813Z,1.80
2022-08-29T23:46:43.614Z,1.60
2022-08-29T23:51:48.037Z,1.75
2022-08-29T23:56:50.820Z,2.08
